Time;durP1;ratioP1;P1;durP2;ratioP2;P2;SDS_P1;SDS_P2;PMS_P1;PMS_P2;Temp;Humidity;BMP_temperature;BMP_pressure;BME280_temperature;BME280_humidity;BME280_pressure;Samples;Min_cycle;Max_cycle;Signal;HPM_P1;HPM_P2
2022/04/03 00:02:18;;;;;;;9.63;9.33;;;1.20;99.90;;;;;;5090494;28;20226;-82
2022/04/03 00:04:47;;;;;;;9.30;9.00;;;1.20;99.90;;;;;;5085672;28;20258;-82
2022/04/03 00:07:16;;;;;;;9.40;9.10;;;1.10;99.90;;;;;;5084437;28;20241;-82
2022/04/03 00:09:46;;;;;;;9.50;9.20;;;1.20;99.90;;;;;;5083557;28;20238;-82
2022/04/03 00:12:15;;;;;;;9.40;9.10;;;1.10;99.90;;;;;;5083389;28;20261;-82
2022/04/03 00:14:45;;;;;;;9.60;9.30;;;1.20;99.90;;;;;;5082490;28;20256;-81
2022/04/03 00:20:01;;;;;;;9.70;9.40;;;1.20;99.90;;;;;;5081755;28;20228;-81
2022/04/03 00:22:31;;;;;;;9.87;9.57;;;1.20;99.90;;;;;;5082286;28;20269;-82
2022/04/03 00:25:01;;;;;;;9.97;9.67;;;1.20;99.90;;;;;;5081791;28;20236;-82
2022/04/03 00:27:30;;;;;;;9.60;9.30;;;1.20;99.90;;;;;;5081646;28;20282;-81
2022/04/03 00:30:00;;;;;;;9.50;9.20;;;1.20;99.90;;;;;;5081364;28;20298;-81
2022/04/03 00:32:31;;;;;;;9.50;9.20;;;1.20;99.90;;;;;;5081067;28;20290;-84
2022/04/03 00:34:58;;;;;;;9.30;9.00;;;1.20;99.90;;;;;;5081131;28;20245;-82
2022/04/03 00:37:28;;;;;;;9.60;9.30;;;1.10;99.90;;;;;;5081343;28;20355;-81
2022/04/03 00:39:57;;;;;;;9.60;9.30;;;1.10;99.90;;;;;;5081591;28;20234;-82
2022/04/03 00:42:26;;;;;;;9.43;9.13;;;1.00;99.90;;;;;;5081364;28;20261;-82
2022/04/03 00:44:55;;;;;;;9.50;9.20;;;1.10;99.90;;;;;;5081964;28;20304;-82
2022/04/03 00:47:25;;;;;;;9.50;9.20;;;1.10;99.90;;;;;;5081878;28;20234;-82
2022/04/03 00:50:03;;;;;;;9.30;9.00;;;1.00;99.90;;;;;;5081179;28;20234;-82
2022/04/03 00:52:32;;;;;;;9.47;9.17;;;1.00;99.90;;;;;;5081156;28;20237;-81
2022/04/03 00:55:02;;;;;;;9.60;9.30;;;1.10;99.90;;;;;;5081851;28;20233;-81
2022/04/03 00:57:31;;;;;;;9.30;9.00;;;1.00;99.90;;;;;;5081402;28;20272;-81
2022/04/03 01:00:02;;;;;;;9.60;9.30;;;1.00;99.90;;;;;;5081834;28;20238;-81
2022/04/03 01:02:31;;;;;;;9.13;8.90;;;1.00;99.90;;;;;;5081149;28;20241;-81
2022/04/03 01:05:09;;;;;;;9.00;8.80;;;0.90;99.90;;;;;;5081292;28;20230;-79
2022/04/03 01:07:38;;;;;;;9.07;8.87;;;0.90;99.90;;;;;;5081299;28;20257;-81
2022/04/03 01:10:07;;;;;;;9.30;9.00;;;0.80;99.90;;;;;;5080627;28;20276;-82
2022/04/03 01:12:49;;;;;;;9.17;8.90;;;0.80;99.90;;;;;;5081182;28;20230;-82
2022/04/03 01:15:17;;;;;;;8.90;8.70;;;0.80;99.90;;;;;;5080536;28;20229;-82
2022/04/03 01:17:46;;;;;;;9.30;9.00;;;0.70;99.90;;;;;;5080510;28;20226;-81
2022/04/03 01:20:18;;;;;;;9.00;8.80;;;0.70;99.90;;;;;;5080176;28;20278;-81
2022/04/03 01:22:46;;;;;;;9.43;9.13;;;0.70;99.90;;;;;;5079827;28;20230;-82
2022/04/03 01:25:17;;;;;;;8.93;8.73;;;0.60;99.90;;;;;;5080757;28;20230;-82
2022/04/03 01:27:45;;;;;;;9.10;8.87;;;0.60;99.90;;;;;;5080321;28;20301;-82
2022/04/03 01:30:14;;;;;;;9.40;9.10;;;0.60;99.90;;;;;;5081512;28;20257;-82
2022/04/03 01:32:43;;;;;;;9.20;8.93;;;0.60;99.90;;;;;;5080741;28;20318;-81
2022/04/03 01:35:12;;;;;;;8.77;8.57;;;0.60;99.90;;;;;;5081646;28;20241;-82
2022/04/03 01:37:42;;;;;;;9.30;9.00;;;0.60;99.90;;;;;;5080828;28;20290;-81
2022/04/03 01:40:12;;;;;;;9.00;8.80;;;0.50;99.90;;;;;;5088031;28;20261;-82
2022/04/03 01:45:28;;;;;;;9.30;9.00;;;0.40;99.90;;;;;;5097398;28;20221;-81
2022/04/03 01:47:57;;;;;;;9.40;9.10;;;0.40;99.90;;;;;;5087952;28;20233;-82
2022/04/03 01:50:26;;;;;;;9.27;8.97;;;0.40;99.90;;;;;;5087695;28;20261;-82
2022/04/03 01:52:57;;;;;;;9.20;8.90;;;0.40;99.90;;;;;;5086638;28;20230;-83
2022/04/03 01:55:26;;;;;;;8.87;8.67;;;0.40;99.90;;;;;;5087183;28;20309;-82
2022/04/03 01:58:08;;;;;;;8.90;8.70;;;0.40;99.90;;;;;;5087125;28;20266;-83
2022/04/03 02:00:35;;;;;;;9.27;8.97;;;0.30;99.90;;;;;;5093351;28;20296;-82
2022/04/03 02:03:04;;;;;;;9.30;9.00;;;0.30;99.90;;;;;;5093272;28;20237;-82
2022/04/03 02:05:32;;;;;;;9.33;9.03;;;0.30;99.90;;;;;;5086173;28;20234;-82
2022/04/03 02:08:02;;;;;;;9.60;9.30;;;0.30;99.90;;;;;;5085902;28;20229;-83
2022/04/03 02:10:31;;;;;;;9.33;9.03;;;0.30;99.90;;;;;;5085683;28;20244;-83
2022/04/03 02:13:03;;;;;;;9.60;9.30;;;0.30;99.90;;;;;;5084896;28;20230;-82
2022/04/03 02:15:31;;;;;;;9.40;9.10;;;0.20;99.90;;;;;;5085319;28;20218;-82
2022/04/03 02:18:00;;;;;;;9.37;9.07;;;0.20;99.90;;;;;;5085125;28;20230;-82
2022/04/03 02:20:31;;;;;;;9.60;9.30;;;0.20;99.90;;;;;;5085675;28;20252;-82
2022/04/03 02:22:59;;;;;;;9.80;9.50;;;0.20;99.90;;;;;;5084802;28;20234;-82
2022/04/03 02:25:29;;;;;;;9.53;9.23;;;0.20;99.90;;;;;;5084997;28;20241;-82
2022/04/03 02:27:57;;;;;;;9.20;8.90;;;0.20;99.90;;;;;;5084700;28;20237;-82
2022/04/03 02:30:29;;;;;;;9.47;9.17;;;0.10;99.90;;;;;;5084376;28;20226;-81
2022/04/03 02:32:56;;;;;;;9.60;9.30;;;0.10;99.90;;;;;;5083890;28;20249;-81
2022/04/03 02:35:25;;;;;;;9.57;9.27;;;0.10;99.90;;;;;;5084392;28;20250;-82
2022/04/03 02:37:55;;;;;;;9.73;9.43;;;0.20;99.90;;;;;;5083694;28;20261;-82
2022/04/03 02:40:25;;;;;;;9.23;8.93;;;0.10;99.90;;;;;;5084319;28;20261;-81
2022/04/03 02:42:54;;;;;;;9.80;9.50;;;0.20;99.90;;;;;;5083573;28;20309;-82
2022/04/03 02:45:24;;;;;;;9.73;9.43;;;0.20;99.90;;;;;;5083806;28;20230;-81
2022/04/03 02:48:02;;;;;;;9.80;9.50;;;0.10;99.90;;;;;;5083723;28;20257;-81
2022/04/03 02:50:32;;;;;;;9.70;9.40;;;0.10;99.90;;;;;;5084219;28;20240;-81
2022/04/03 02:53:00;;;;;;;9.40;9.10;;;0.10;99.90;;;;;;5083527;28;20218;-81
2022/04/03 02:55:29;;;;;;;9.70;9.40;;;0.20;99.90;;;;;;5083632;28;20233;-81
2022/04/03 02:57:59;;;;;;;9.27;8.97;;;0.30;99.90;;;;;;5082416;28;20706;-82
2022/04/03 03:00:30;;;;;;;9.50;9.20;;;0.20;99.90;;;;;;5082814;28;20273;-82
2022/04/03 03:03:09;;;;;;;9.63;9.33;;;0.20;99.90;;;;;;5082506;28;20234;-82
2022/04/03 03:05:38;;;;;;;9.53;9.23;;;0.10;99.90;;;;;;5083872;28;20233;-83
2022/04/03 03:08:06;;;;;;;9.80;9.50;;;0.10;99.90;;;;;;5083324;28;20234;-82
2022/04/03 03:10:36;;;;;;;9.60;9.30;;;0.00;99.90;;;;;;5083725;28;20342;-83
2022/04/03 03:13:05;;;;;;;9.50;9.20;;;0.10;99.90;;;;;;5082557;28;20289;-82
2022/04/03 03:15:34;;;;;;;9.70;9.40;;;0.00;99.90;;;;;;5082745;28;20248;-82
2022/04/03 03:18:06;;;;;;;9.63;9.33;;;-0.10;99.90;;;;;;5082486;28;20245;-82
2022/04/03 03:20:34;;;;;;;9.77;9.47;;;-0.10;99.90;;;;;;5083046;28;20229;-83
2022/04/03 03:23:04;;;;;;;9.80;9.50;;;-0.10;99.90;;;;;;5081794;28;20222;-82
2022/04/03 03:25:33;;;;;;;9.97;9.67;;;-0.20;99.90;;;;;;5083104;28;20264;-82
2022/04/03 03:28:03;;;;;;;9.87;9.57;;;-0.30;99.90;;;;;;5082082;28;20238;-81
2022/04/03 03:30:33;;;;;;;9.50;9.20;;;-0.30;99.90;;;;;;5081909;28;20284;-82
2022/04/03 03:33:05;;;;;;;9.83;9.53;;;-0.30;99.90;;;;;;5081287;28;20253;-82
2022/04/03 03:35:33;;;;;;;9.77;9.47;;;-0.40;99.90;;;;;;5087144;28;20234;-82
2022/04/03 03:38:01;;;;;;;10.10;9.80;;;-0.50;99.90;;;;;;5099246;28;20225;-82
2022/04/03 03:40:31;;;;;;;9.87;9.57;;;-0.50;99.90;;;;;;5095503;28;20316;-82
2022/04/03 03:43:00;;;;;;;10.10;9.80;;;-0.40;99.90;;;;;;5082510;28;20228;-83
2022/04/03 03:45:30;;;;;;;9.77;9.47;;;-0.40;99.90;;;;;;5083600;28;20233;-83
2022/04/03 03:47:58;;;;;;;10.00;9.70;;;-0.40;99.90;;;;;;5082837;28;20230;-82
2022/04/03 03:50:37;;;;;;;10.10;9.80;;;-0.50;99.90;;;;;;5083791;28;20316;-82
2022/04/03 03:53:07;;;;;;;10.10;9.80;;;-0.50;99.90;;;;;;5083237;28;20323;-83
2022/04/03 03:55:35;;;;;;;10.20;9.90;;;-0.50;99.90;;;;;;5082777;28;20237;-82
2022/04/03 03:58:06;;;;;;;10.13;9.83;;;-0.60;99.90;;;;;;5082098;28;20238;-82
2022/04/03 04:00:35;;;;;;;10.00;9.70;;;-0.60;99.90;;;;;;5081520;28;20248;-82
2022/04/03 04:03:05;;;;;;;10.20;9.90;;;-0.60;99.90;;;;;;5081225;28;20250;-83
2022/04/03 04:05:36;;;;;;;9.97;9.67;;;-0.70;99.90;;;;;;5081904;28;20226;-82
2022/04/03 04:08:04;;;;;;;10.17;9.87;;;-0.70;99.90;;;;;;5081161;28;20705;-82
2022/04/03 04:10:32;;;;;;;10.03;9.73;;;-0.70;99.90;;;;;;5083893;28;20240;-82
2022/04/03 04:13:02;;;;;;;10.03;9.73;;;-0.70;99.90;;;;;;5097799;28;20221;-82
2022/04/03 04:15:32;;;;;;;10.00;9.70;;;-0.70;99.90;;;;;;5089392;28;20230;-82
2022/04/03 04:18:00;;;;;;;9.97;9.67;;;-0.70;99.90;;;;;;5082803;28;20237;-82
2022/04/03 04:20:30;;;;;;;10.23;9.93;;;-0.60;99.90;;;;;;5082653;28;20298;-82
2022/04/03 04:23:10;;;;;;;10.17;9.87;;;-0.60;99.90;;;;;;5082697;28;20261;-82
2022/04/03 04:25:38;;;;;;;9.93;9.63;;;-0.60;99.90;;;;;;5082581;28;20273;-82
2022/04/03 04:28:07;;;;;;;10.20;9.90;;;-0.60;99.90;;;;;;5082615;28;20241;-82
2022/04/03 04:30:37;;;;;;;10.10;9.80;;;-0.70;99.90;;;;;;5082933;28;20230;-82
2022/04/03 04:33:06;;;;;;;10.10;9.80;;;-0.70;99.90;;;;;;5082606;28;20232;-82
2022/04/03 04:35:35;;;;;;;10.07;9.77;;;-0.60;99.90;;;;;;5081215;28;20245;-81
2022/04/03 04:38:15;;;;;;;10.20;9.90;;;-0.70;99.90;;;;;;5080692;28;20273;-82
2022/04/03 04:40:44;;;;;;;10.20;9.90;;;-0.70;99.90;;;;;;5080910;28;20232;-81
2022/04/03 04:43:12;;;;;;;10.67;10.37;;;-0.70;99.90;;;;;;5078750;28;20241;-81
2022/04/03 04:45:43;;;;;;;10.50;10.20;;;-0.70;99.90;;;;;;5081171;28;20284;-81
2022/04/03 04:48:12;;;;;;;10.13;9.83;;;-0.60;99.90;;;;;;5081598;28;20234;-81
2022/04/03 04:50:41;;;;;;;10.00;9.70;;;-0.60;99.90;;;;;;5081002;28;20284;-81
2022/04/03 04:55:57;;;;;;;10.27;9.97;;;-0.60;99.90;;;;;;5082057;28;20234;-81
2022/04/03 04:58:27;;;;;;;10.27;9.97;;;-0.70;99.90;;;;;;5081496;28;20261;-81
2022/04/03 05:00:56;;;;;;;10.37;10.07;;;-0.70;99.90;;;;;;5081467;28;20233;-81
2022/04/03 05:03:25;;;;;;;10.23;9.93;;;-0.80;99.90;;;;;;5080727;28;20233;-80
2022/04/03 05:05:55;;;;;;;10.13;9.83;;;-0.80;99.90;;;;;;5081249;28;20244;-81
2022/04/03 05:08:33;;;;;;;10.30;10.00;;;-0.80;99.90;;;;;;5080737;28;20248;-81
2022/04/03 05:11:02;;;;;;;10.67;10.37;;;-0.80;99.90;;;;;;5122830;22;20231;-84
2022/04/03 05:13:32;;;;;;;10.60;10.30;;;-0.80;99.90;;;;;;5117507;27;20225;-83
2022/04/03 05:16:01;;;;;;;10.63;10.33;;;-0.90;99.90;;;;;;5117793;27;20240;-84
2022/04/03 05:18:31;;;;;;;10.60;10.30;;;-0.80;99.90;;;;;;5117342;28;20241;-84
2022/04/03 05:21:01;;;;;;;10.20;9.90;;;-0.90;99.90;;;;;;5117889;27;20263;-84
2022/04/03 05:23:41;;;;;;;10.47;10.17;;;-0.90;99.90;;;;;;5120618;28;20255;-85
2022/04/03 05:26:12;;;;;;;10.27;9.97;;;-0.90;99.90;;;;;;5120761;27;20271;-87
2022/04/03 05:28:41;;;;;;;10.40;10.10;;;-0.90;99.90;;;;;;5120436;28;20225;-84
2022/04/03 05:31:09;;;;;;;10.50;10.20;;;-0.90;99.90;;;;;;5112216;28;20240;-84
2022/04/03 05:33:54;;;;;;;10.30;10.00;;;-0.90;99.90;;;;;;5107660;28;20255;-85
2022/04/03 05:36:25;;;;;;;10.27;9.97;;;-1.00;99.90;;;;;;5106308;28;20231;-85
2022/04/03 05:39:05;;;;;;;10.30;10.00;;;-1.00;99.90;;;;;;5106795;28;20321;-84
2022/04/03 05:41:34;;;;;;;10.13;9.83;;;-1.00;99.90;;;;;;5106297;28;20246;-84
2022/04/03 05:44:03;;;;;;;10.30;10.00;;;-1.00;99.90;;;;;;5104923;28;20227;-85
2022/04/03 05:46:32;;;;;;;9.93;9.63;;;-0.90;99.90;;;;;;5104804;28;20260;-84
2022/04/03 05:49:01;;;;;;;10.03;9.73;;;-0.90;99.90;;;;;;5104141;28;20236;-84
2022/04/03 05:51:31;;;;;;;10.00;9.70;;;-0.90;99.90;;;;;;5095675;28;20242;-84
2022/04/03 05:54:10;;;;;;;9.80;9.50;;;-0.80;99.90;;;;;;5104136;28;20224;-86
2022/04/03 05:56:39;;;;;;;9.73;9.43;;;-0.80;99.90;;;;;;5103340;28;20236;-84
2022/04/03 05:59:08;;;;;;;9.90;9.60;;;-0.80;99.90;;;;;;5103047;28;20240;-84
2022/04/03 06:01:37;;;;;;;9.97;9.67;;;-0.80;99.90;;;;;;5103224;28;20221;-84
2022/04/03 06:04:07;;;;;;;10.27;9.97;;;-0.70;99.90;;;;;;5103082;28;20271;-84
2022/04/03 06:06:36;;;;;;;10.00;9.70;;;-0.70;99.90;;;;;;5104044;28;20480;-84
2022/04/03 06:11:55;;;;;;;10.13;9.82;;;-0.70;99.90;;;;;;5100435;28;20434;-87
2022/04/03 06:14:22;;;;;;;9.67;9.37;;;-0.60;99.90;;;;;;5101670;28;20213;-86
2022/04/03 06:16:52;;;;;;;9.53;9.23;;;-0.60;99.90;;;;;;5081099;28;20238;-86
2022/04/03 06:19:21;;;;;;;9.93;9.63;;;-0.50;99.90;;;;;;5080963;28;20237;-86
2022/04/03 06:21:52;;;;;;;9.67;9.37;;;-0.40;99.90;;;;;;5081360;28;20240;-86
2022/04/03 06:24:29;;;;;;;9.73;9.43;;;-0.40;99.90;;;;;;5084393;28;20219;-87
2022/04/03 06:27:08;;;;;;;9.73;9.43;;;-0.40;99.90;;;;;;5087157;28;20222;-85
2022/04/03 06:29:36;;;;;;;9.70;9.40;;;-0.30;99.90;;;;;;5085101;28;20268;-87
2022/04/03 06:32:06;;;;;;;9.97;9.67;;;-0.30;99.90;;;;;;5082139;28;20249;-87
2022/04/03 06:34:36;;;;;;;10.00;9.70;;;-0.30;99.90;;;;;;5081067;28;20246;-87
2022/04/03 06:37:05;;;;;;;9.70;9.40;;;-0.20;99.90;;;;;;5080064;28;20268;-86
2022/04/03 06:39:45;;;;;;;10.00;9.70;;;-0.20;99.90;;;;;;5079824;28;20238;-86
2022/04/03 06:42:17;;;;;;;9.50;9.20;;;-0.10;99.90;;;;;;5080142;28;20232;-87
2022/04/03 06:44:45;;;;;;;9.63;9.33;;;-0.10;99.90;;;;;;5080283;28;20233;-87
2022/04/03 06:47:13;;;;;;;10.00;9.70;;;-0.10;99.90;;;;;;5079166;28;20261;-87
2022/04/03 06:49:41;;;;;;;9.80;9.50;;;0.00;99.90;;;;;;5079470;28;20291;-87
2022/04/03 06:52:12;;;;;;;9.73;9.43;;;0.10;99.90;;;;;;5078155;28;20301;-87
2022/04/03 06:54:50;;;;;;;10.00;9.70;;;0.20;99.90;;;;;;5080183;28;20250;-87
2022/04/03 06:57:22;;;;;;;9.73;9.43;;;0.30;99.90;;;;;;5079634;28;20335;-87
2022/04/03 07:02:34;;;;;;;9.83;9.53;;;0.30;99.90;;;;;;5076820;28;20253;-87
2022/04/03 07:05:05;;;;;;;9.87;9.57;;;0.40;99.90;;;;;;5080062;28;20230;-86
2022/04/03 07:07:33;;;;;;;9.90;9.60;;;0.40;99.90;;;;;;5080575;28;20288;-86
2022/04/03 07:10:11;;;;;;;10.07;9.77;;;0.30;99.90;;;;;;5080185;28;20264;-87
2022/04/03 07:12:42;;;;;;;10.30;10.00;;;0.40;99.90;;;;;;5080768;28;20296;-86
2022/04/03 07:15:12;;;;;;;10.10;9.80;;;0.40;99.90;;;;;;5079521;28;20233;-87
2022/04/03 07:17:40;;;;;;;10.00;9.70;;;0.40;99.90;;;;;;5084278;28;20248;-88
2022/04/03 07:20:19;;;;;;;10.00;9.70;;;0.50;99.90;;;;;;5092721;28;20459;-89
2022/04/03 07:22:51;;;;;;;9.90;9.60;;;0.60;99.90;;;;;;5088793;28;20233;-86
2022/04/03 07:28:08;;;;;;;9.80;9.50;;;0.60;99.90;;;;;;5085601;28;20249;-86
2022/04/03 07:30:38;;;;;;;9.80;9.50;;;0.60;99.90;;;;;;5083945;28;20282;-86
2022/04/03 07:33:20;;;;;;;9.60;9.30;;;0.70;99.90;;;;;;5080864;28;20238;-87
2022/04/03 07:36:01;;;;;;;9.57;9.27;;;0.80;99.90;;;;;;5079415;28;20312;-86
2022/04/03 07:39:02;;;;;;;9.63;9.33;;;0.80;99.90;;;;;;5078874;28;20230;-87
2022/04/03 07:41:34;;;;;;;9.20;8.90;;;0.80;99.90;;;;;;5076108;28;20244;-84
2022/04/03 07:44:04;;;;;;;9.57;9.27;;;0.80;99.90;;;;;;5079911;28;20238;-85
2022/04/03 07:46:33;;;;;;;9.70;9.40;;;0.80;99.90;;;;;;5083483;28;20222;-85
2022/04/03 07:49:03;;;;;;;9.70;9.40;;;0.90;99.90;;;;;;5085595;28;20237;-86
2022/04/03 07:51:34;;;;;;;9.67;9.37;;;0.90;99.90;;;;;;5086132;28;20233;-84
2022/04/03 07:54:02;;;;;;;9.60;9.30;;;0.90;99.90;;;;;;5086691;28;20222;-85
2022/04/03 07:56:35;;;;;;;9.57;9.27;;;1.10;99.90;;;;;;5089415;28;20229;-86
2022/04/03 07:59:05;;;;;;;9.57;9.27;;;1.20;99.90;;;;;;5096378;28;20232;-83
2022/04/03 08:01:40;;;;;;;9.40;9.10;;;1.20;99.90;;;;;;5087444;28;20222;-82
2022/04/03 08:04:10;;;;;;;9.27;8.97;;;1.30;99.90;;;;;;5087780;28;20229;-84
2022/04/03 08:06:38;;;;;;;9.17;8.87;;;1.30;99.90;;;;;;5087766;28;20261;-85
2022/04/03 08:09:11;;;;;;;8.83;8.63;;;1.20;99.90;;;;;;5085229;28;20241;-85
2022/04/03 08:11:46;;;;;;;9.40;9.10;;;1.20;99.90;;;;;;5087229;28;20230;-84
2022/04/03 08:14:18;;;;;;;9.20;8.90;;;1.20;99.90;;;;;;5083973;28;20321;-86
2022/04/03 08:16:46;;;;;;;8.87;8.67;;;1.10;99.90;;;;;;5082961;28;20240;-86
2022/04/03 08:19:14;;;;;;;9.30;9.00;;;1.00;99.90;;;;;;5083224;28;20269;-87
2022/04/03 08:21:43;;;;;;;8.90;8.70;;;1.20;99.90;;;;;;5083407;28;20369;-86
2022/04/03 08:24:26;;;;;;;9.10;8.90;;;1.30;99.90;;;;;;5085040;28;20234;-87
2022/04/03 08:27:03;;;;;;;9.33;9.03;;;1.30;99.90;;;;;;5081993;28;20246;-87
2022/04/03 08:29:48;;;;;;;9.30;9.00;;;1.50;99.90;;;;;;5080389;28;20289;-87
2022/04/03 08:32:21;;;;;;;9.50;9.20;;;1.50;99.90;;;;;;5081338;28;20233;-86
2022/04/03 08:40:23;;;;;;;9.20;8.90;;;1.70;99.90;;;;;;5086255;28;20238;-87
2022/04/03 08:43:11;;;;;;;9.30;9.00;;;1.70;99.90;;;;;;5104832;28;20232;-88
2022/04/03 08:45:44;;;;;;;9.30;9.00;;;1.80;99.90;;;;;;5115372;28;20307;-87
2022/04/03 08:48:15;;;;;;;8.93;8.73;;;1.80;99.90;;;;;;5114392;28;20225;-83
2022/04/03 09:01:53;;;;;;;9.27;8.97;;;2.00;99.90;;;;;;4994718;28;20226;-83
2022/04/03 09:04:21;;;;;;;9.27;8.97;;;1.90;99.90;;;;;;5025892;28;20235;-83
2022/04/03 09:14:14;;;;;;;9.40;9.10;;;1.80;99.90;;;;;;5083849;28;20218;-84
2022/04/03 09:17:53;;;;;;;9.47;9.17;;;1.90;99.90;;;;;;5088187;28;20241;-86
2022/04/03 09:21:23;;;;;;;9.17;8.87;;;1.90;99.90;;;;;;5089322;28;20246;-85
2022/04/03 09:27:59;;;;;;;9.30;9.00;;;2.20;99.90;;;;;;4980726;28;20218;-82
2022/04/03 09:42:23;;;;;;;9.50;9.20;;;2.70;99.90;;;;;;5025049;28;20236;-86
2022/04/03 09:44:59;;;;;;;9.13;8.83;;;3.00;99.90;;;;;;4960749;28;20382;-85
2022/04/03 09:58:12;;;;;;;9.30;9.00;;;3.40;99.90;;;;;;5082961;28;20238;-85
2022/04/03 10:00:49;;;;;;;9.50;9.20;;;3.80;99.90;;;;;;5086325;28;20233;-85
2022/04/03 10:03:21;;;;;;;9.40;9.10;;;4.00;99.90;;;;;;5101000;28;20859;-85
2022/04/03 10:05:49;;;;;;;9.70;9.40;;;4.30;99.90;;;;;;5102192;28;20225;-80
2022/04/03 10:27:55;;;;;;;9.50;9.20;;;4.80;99.90;;;;;;4835096;29;20251;-90
2022/04/03 11:18:59;;;;;;;9.37;9.07;;;7.70;99.90;;;;;;5024716;28;20228;-83
2022/04/03 11:25:06;;;;;;;9.50;9.20;;;8.80;99.90;;;;;;5083663;28;20233;-83
2022/04/03 11:27:51;;;;;;;9.70;9.40;;;8.90;99.90;;;;;;5086915;28;20226;-84
2022/04/03 11:34:27;;;;;;;9.37;9.07;;;8.60;99.90;;;;;;5036719;28;20234;-84
2022/04/03 11:41:06;;;;;;;9.20;8.90;;;7.50;99.90;;;;;;5049988;28;20295;-84
2022/04/03 11:44:42;;;;;;;9.20;8.90;;;8.00;99.90;;;;;;5046147;28;20250;-84
2022/04/03 12:03:12;;;;;;;9.00;8.80;;;7.60;99.90;;;;;;4972247;28;20219;-85
2022/04/03 12:13:19;;;;;;;9.23;8.93;;;7.60;99.90;;;;;;4935062;28;20234;-84
2022/04/03 12:54:09;;;;;;;9.30;9.00;;;8.00;99.90;;;;;;4979493;28;20243;-89
2022/04/03 13:02:39;;;;;;;9.33;9.03;;;7.00;99.90;;;;;;5039500;28;20334;-83
2022/04/03 13:05:17;;;;;;;9.67;9.37;;;7.00;99.90;;;;;;5040514;28;20332;-83
2022/04/03 13:07:46;;;;;;;9.53;9.23;;;7.30;99.90;;;;;;5075461;28;20253;-83
2022/04/03 13:10:25;;;;;;;9.00;8.80;;;8.10;99.90;;;;;;5083150;28;20246;-84
2022/04/03 13:12:56;;;;;;;9.30;9.00;;;8.40;99.90;;;;;;5082575;28;20288;-84
2022/04/03 13:15:23;;;;;;;9.40;9.10;;;8.50;99.90;;;;;;5082712;28;20225;-83
2022/04/03 13:24:57;;;;;;;9.63;9.33;;;8.60;99.90;;;;;;4947245;29;20282;-85
2022/04/03 13:27:25;;;;;;;9.67;9.37;;;9.70;99.90;;;;;;5021767;28;20256;-84
2022/04/03 13:29:58;;;;;;;9.90;9.60;;;9.70;99.90;;;;;;5068371;28;20227;-84
2022/04/03 13:32:26;;;;;;;9.60;9.30;;;9.50;99.90;;;;;;5065197;28;20235;-85
2022/04/03 13:34:54;;;;;;;9.67;9.37;;;9.50;99.90;;;;;;5065646;28;20230;-84
2022/04/03 13:37:23;;;;;;;9.57;9.27;;;9.90;99.90;;;;;;5062932;28;20235;-85
2022/04/03 13:39:53;;;;;;;9.80;9.50;;;10.10;99.90;;;;;;5063688;28;20285;-85
2022/04/03 13:46:02;;;;;;;10.17;9.87;;;8.60;99.90;;;;;;5075955;28;20261;-84
2022/04/03 13:48:36;;;;;;;9.63;9.33;;;8.10;99.90;;;;;;5076056;28;20237;-83
2022/04/03 13:51:11;;;;;;;9.50;9.20;;;8.00;99.90;;;;;;5084843;28;20226;-84
2022/04/03 13:53:39;;;;;;;9.70;9.40;;;8.10;99.90;;;;;;5085731;28;20230;-84
2022/04/03 13:56:17;;;;;;;9.80;9.50;;;8.20;99.90;;;;;;5087735;28;20253;-85
2022/04/03 13:58:49;;;;;;;9.80;9.50;;;8.80;99.90;;;;;;5087592;28;20241;-84
2022/04/03 14:01:27;;;;;;;9.83;9.53;;;9.20;99.90;;;;;;5087001;28;20289;-84
2022/04/03 14:06:41;;;;;;;9.73;9.43;;;9.60;99.90;;;;;;5087293;28;20229;-85
2022/04/03 14:09:11;;;;;;;9.50;9.20;;;9.80;99.90;;;;;;5086666;28;20214;-82
2022/04/03 14:11:41;;;;;;;9.70;9.40;;;10.10;99.90;;;;;;5084905;28;20234;-82
2022/04/03 14:14:10;;;;;;;9.20;8.90;;;10.60;99.90;;;;;;5085091;28;20257;-83
2022/04/03 14:16:41;;;;;;;9.60;9.30;;;10.60;99.90;;;;;;5089236;28;20238;-83
2022/04/03 14:19:09;;;;;;;9.17;8.87;;;10.50;99.90;;;;;;5090152;28;20230;-83
2022/04/03 14:21:38;;;;;;;9.60;9.30;;;10.80;99.90;;;;;;5088740;28;20241;-83
2022/04/03 14:24:08;;;;;;;9.83;9.53;;;11.10;99.90;;;;;;5086477;28;20256;-83
2022/04/03 14:26:37;;;;;;;9.80;9.50;;;10.50;99.90;;;;;;5086898;28;20328;-83
2022/04/03 14:29:07;;;;;;;9.70;9.40;;;10.20;99.90;;;;;;5085545;28;20240;-83
2022/04/03 14:31:36;;;;;;;9.70;9.40;;;9.60;99.90;;;;;;5085441;28;20230;-83
2022/04/03 14:34:07;;;;;;;9.53;9.23;;;9.60;99.90;;;;;;5085371;28;20302;-83
2022/04/03 14:36:36;;;;;;;9.47;9.17;;;9.40;99.90;;;;;;5085901;28;20242;-83
2022/04/03 14:39:04;;;;;;;9.77;9.47;;;9.40;99.90;;;;;;5085435;28;20324;-83
2022/04/03 14:41:34;;;;;;;9.50;9.20;;;9.40;99.90;;;;;;5085220;28;20233;-83
2022/04/03 14:44:02;;;;;;;9.43;9.13;;;9.20;99.90;;;;;;5084597;28;20230;-83
2022/04/03 14:46:32;;;;;;;9.57;9.27;;;9.20;99.90;;;;;;5085601;28;20230;-83
2022/04/03 14:49:01;;;;;;;9.67;9.37;;;9.00;99.90;;;;;;5085299;28;20238;-83
2022/04/03 14:51:33;;;;;;;9.57;9.27;;;8.80;99.90;;;;;;5084785;28;21028;-82
2022/04/03 14:54:03;;;;;;;10.13;9.83;;;9.10;99.90;;;;;;5083085;28;20234;-83
2022/04/03 14:56:31;;;;;;;9.80;9.50;;;9.70;99.90;;;;;;5084814;28;20233;-83
2022/04/03 14:59:03;;;;;;;9.80;9.50;;;9.40;99.90;;;;;;5084718;28;20230;-83
2022/04/03 15:01:30;;;;;;;9.90;9.60;;;9.20;99.90;;;;;;5083974;28;20295;-83
2022/04/03 15:03:58;;;;;;;10.00;9.70;;;9.30;99.90;;;;;;5083757;28;20226;-83
2022/04/03 15:06:27;;;;;;;9.90;9.60;;;9.60;99.90;;;;;;5087276;28;20254;-82
2022/04/03 15:09:06;;;;;;;9.60;9.30;;;9.90;99.90;;;;;;5085067;28;20258;-83
2022/04/03 15:11:35;;;;;;;10.00;9.70;;;10.00;99.90;;;;;;5084896;28;20238;-82
2022/04/03 15:14:05;;;;;;;10.03;9.73;;;10.40;99.90;;;;;;5084613;28;20244;-83
2022/04/03 15:16:34;;;;;;;9.97;9.67;;;10.50;99.90;;;;;;5085069;28;20241;-83
2022/04/03 15:19:04;;;;;;;10.17;9.87;;;10.90;99.90;;;;;;5084319;28;20256;-83
2022/04/03 15:21:33;;;;;;;9.70;9.40;;;10.40;99.90;;;;;;5084380;28;20288;-83
2022/04/03 15:26:52;;;;;;;9.97;9.67;;;8.70;99.90;;;;;;5084373;28;20226;-82
2022/04/03 15:29:21;;;;;;;9.90;9.60;;;8.20;99.90;;;;;;5084285;28;20223;-82
2022/04/03 15:31:50;;;;;;;9.90;9.60;;;8.00;99.90;;;;;;5084813;28;20234;-82
2022/04/03 15:34:21;;;;;;;9.90;9.60;;;7.70;99.90;;;;;;5084205;28;20232;-82
2022/04/03 15:36:52;;;;;;;9.87;9.57;;;7.80;99.90;;;;;;5092074;28;20257;-82
2022/04/03 15:39:22;;;;;;;10.00;9.70;;;7.70;99.90;;;;;;5099707;28;20229;-82
2022/04/03 15:41:49;;;;;;;9.90;9.60;;;7.50;99.90;;;;;;5099717;28;20214;-82
2022/04/03 15:44:17;;;;;;;9.97;9.67;;;7.30;99.90;;;;;;5099424;28;20292;-82
2022/04/03 15:46:47;;;;;;;9.80;9.50;;;7.50;99.90;;;;;;5094638;28;20234;-81
2022/04/03 15:49:16;;;;;;;9.90;9.60;;;8.00;99.90;;;;;;5087462;28;20226;-82
2022/04/03 15:51:46;;;;;;;10.10;9.80;;;8.20;99.90;;;;;;5096244;28;20206;-82
2022/04/03 15:54:15;;;;;;;9.83;9.53;;;8.30;99.90;;;;;;5095075;28;20222;-81
2022/04/03 15:56:53;;;;;;;9.80;9.50;;;8.40;99.90;;;;;;5084777;28;20292;-81
2022/04/03 15:59:23;;;;;;;9.40;9.10;;;8.60;99.90;;;;;;5085569;28;20284;-82
2022/04/03 16:01:52;;;;;;;9.80;9.50;;;8.60;99.90;;;;;;5084994;28;20228;-82
2022/04/03 16:04:22;;;;;;;9.90;9.60;;;8.50;99.90;;;;;;5084109;28;20230;-82
2022/04/03 16:06:51;;;;;;;10.07;9.77;;;8.50;99.90;;;;;;5085802;28;20291;-82
2022/04/03 16:09:20;;;;;;;9.70;9.40;;;7.80;99.90;;;;;;5085876;28;20226;-83
2022/04/03 16:11:59;;;;;;;9.80;9.50;;;7.40;99.90;;;;;;5084618;28;20245;-82
2022/04/03 16:14:28;;;;;;;10.00;9.70;;;7.40;99.90;;;;;;5083806;28;20225;-82
2022/04/03 16:16:58;;;;;;;9.73;9.43;;;7.00;99.90;;;;;;5085392;28;20320;-83
2022/04/03 16:19:27;;;;;;;9.80;9.50;;;7.00;99.90;;;;;;5084104;28;20240;-82
2022/04/03 16:21:58;;;;;;;9.70;9.40;;;7.20;99.90;;;;;;5083534;28;20257;-82
2022/04/03 16:24:26;;;;;;;9.70;9.40;;;7.20;99.90;;;;;;5083517;28;20284;-82
2022/04/03 16:27:04;;;;;;;9.90;9.60;;;7.00;99.90;;;;;;5083982;28;20280;-83
2022/04/03 16:29:34;;;;;;;9.90;9.60;;;6.90;99.90;;;;;;5083273;28;20229;-82
2022/04/03 16:32:03;;;;;;;10.30;10.00;;;6.90;99.90;;;;;;5084124;28;20654;-83
2022/04/03 16:34:32;;;;;;;10.40;10.10;;;6.70;99.90;;;;;;5084124;28;20291;-83
2022/04/03 16:37:02;;;;;;;10.37;10.07;;;6.50;99.90;;;;;;5083942;28;20325;-83
2022/04/03 16:39:32;;;;;;;10.23;9.93;;;6.20;99.90;;;;;;5088727;28;20281;-83
2022/04/03 16:42:10;;;;;;;10.67;10.37;;;5.80;99.90;;;;;;5093666;28;20284;-83
2022/04/03 16:44:40;;;;;;;10.10;9.80;;;5.50;99.90;;;;;;5090891;28;20238;-85
2022/04/03 16:47:17;;;;;;;10.10;9.80;;;5.20;99.90;;;;;;5087258;28;20232;-85
2022/04/03 16:49:49;;;;;;;10.20;9.90;;;4.90;99.90;;;;;;5085253;28;20237;-85
2022/04/03 16:52:17;;;;;;;9.70;9.40;;;4.80;99.90;;;;;;5085359;28;20222;-85
2022/04/03 16:54:46;;;;;;;9.97;9.67;;;4.60;99.90;;;;;;5085464;28;20234;-84
2022/04/03 17:00:02;;;;;;;9.93;9.63;;;4.40;99.90;;;;;;5099780;28;20224;-83
2022/04/03 17:02:33;;;;;;;9.97;9.67;;;4.30;99.90;;;;;;5098688;28;20233;-84
2022/04/03 17:05:01;;;;;;;10.03;9.73;;;4.30;99.90;;;;;;5099481;28;20222;-84
2022/04/03 17:07:29;;;;;;;10.20;9.90;;;4.30;99.90;;;;;;5099155;28;20218;-83